sensor_id;sensor_type;location;lat;lon;timestamp;P1;durP1;ratioP1;P2;durP2;ratioP2
59930;SDS011;45790;51.538;6.736;2023-06-26T00:01:00;8.90;;;5.40;;
59930;SDS011;45790;51.538;6.736;2023-06-26T00:03:26;7.20;;;5.43;;
59930;SDS011;45790;51.538;6.736;2023-06-26T00:05:51;8.57;;;5.30;;
59930;SDS011;45790;51.538;6.736;2023-06-26T00:08:16;8.65;;;5.88;;
59930;SDS011;45790;51.538;6.736;2023-06-26T00:10:42;8.73;;;5.33;;
59930;SDS011;45790;51.538;6.736;2023-06-26T00:13:07;10.00;;;5.53;;
59930;SDS011;45790;51.538;6.736;2023-06-26T00:15:32;7.27;;;5.37;;
59930;SDS011;45790;51.538;6.736;2023-06-26T00:17:58;9.52;;;5.47;;
59930;SDS011;45790;51.538;6.736;2023-06-26T00:20:23;9.77;;;5.85;;
59930;SDS011;45790;51.538;6.736;2023-06-26T00:22:49;10.30;;;6.47;;
59930;SDS011;45790;51.538;6.736;2023-06-26T00:25:15;7.85;;;5.82;;
59930;SDS011;45790;51.538;6.736;2023-06-26T00:27:40;9.88;;;6.20;;
59930;SDS011;45790;51.538;6.736;2023-06-26T00:30:06;8.27;;;6.13;;
59930;SDS011;45790;51.538;6.736;2023-06-26T00:32:31;9.65;;;6.28;;
59930;SDS011;45790;51.538;6.736;2023-06-26T00:34:56;10.50;;;6.17;;
59930;SDS011;45790;51.538;6.736;2023-06-26T00:37:21;10.40;;;6.17;;
59930;SDS011;45790;51.538;6.736;2023-06-26T00:39:47;8.18;;;6.13;;
59930;SDS011;45790;51.538;6.736;2023-06-26T00:42:12;11.30;;;6.05;;
59930;SDS011;45790;51.538;6.736;2023-06-26T00:44:38;8.77;;;5.77;;
59930;SDS011;45790;51.538;6.736;2023-06-26T00:47:03;7.63;;;5.90;;
59930;SDS011;45790;51.538;6.736;2023-06-26T00:49:28;12.18;;;6.10;;
59930;SDS011;45790;51.538;6.736;2023-06-26T00:51:53;7.97;;;5.47;;
59930;SDS011;45790;51.538;6.736;2023-06-26T00:54:19;8.80;;;6.18;;
59930;SDS011;45790;51.538;6.736;2023-06-26T00:56:47;13.55;;;6.65;;
59930;SDS011;45790;51.538;6.736;2023-06-26T00:59:13;9.95;;;6.35;;
59930;SDS011;45790;51.538;6.736;2023-06-26T01:01:38;13.98;;;6.53;;
59930;SDS011;45790;51.538;6.736;2023-06-26T01:04:03;9.73;;;6.72;;
59930;SDS011;45790;51.538;6.736;2023-06-26T01:06:30;10.18;;;6.53;;
59930;SDS011;45790;51.538;6.736;2023-06-26T01:08:57;9.10;;;6.68;;
59930;SDS011;45790;51.538;6.736;2023-06-26T01:11:22;9.70;;;6.85;;
59930;SDS011;45790;51.538;6.736;2023-06-26T01:13:48;12.17;;;7.23;;
59930;SDS011;45790;51.538;6.736;2023-06-26T01:16:15;11.77;;;6.63;;
59930;SDS011;45790;51.538;6.736;2023-06-26T01:18:44;10.68;;;7.75;;
59930;SDS011;45790;51.538;6.736;2023-06-26T01:21:10;13.80;;;7.65;;
59930;SDS011;45790;51.538;6.736;2023-06-26T01:23:38;12.25;;;8.13;;
59930;SDS011;45790;51.538;6.736;2023-06-26T01:28:32;12.77;;;7.70;;
59930;SDS011;45790;51.538;6.736;2023-06-26T01:30:58;12.85;;;7.80;;
59930;SDS011;45790;51.538;6.736;2023-06-26T01:33:24;11.45;;;7.50;;
59930;SDS011;45790;51.538;6.736;2023-06-26T01:35:49;13.90;;;7.93;;
59930;SDS011;45790;51.538;6.736;2023-06-26T01:38:18;13.27;;;7.10;;
59930;SDS011;45790;51.538;6.736;2023-06-26T01:40:45;11.70;;;7.53;;
59930;SDS011;45790;51.538;6.736;2023-06-26T01:45:41;14.43;;;7.88;;
59930;SDS011;45790;51.538;6.736;2023-06-26T01:48:07;10.70;;;7.05;;
59930;SDS011;45790;51.538;6.736;2023-06-26T01:50:34;11.40;;;6.15;;
59930;SDS011;45790;51.538;6.736;2023-06-26T01:53:02;9.65;;;6.32;;
59930;SDS011;45790;51.538;6.736;2023-06-26T01:58:13;10.85;;;6.68;;
59930;SDS011;45790;51.538;6.736;2023-06-26T02:00:38;14.07;;;6.63;;
59930;SDS011;45790;51.538;6.736;2023-06-26T02:03:04;13.23;;;6.72;;
59930;SDS011;45790;51.538;6.736;2023-06-26T02:05:31;10.70;;;6.85;;
59930;SDS011;45790;51.538;6.736;2023-06-26T02:07:56;11.15;;;7.65;;
59930;SDS011;45790;51.538;6.736;2023-06-26T02:10:21;14.60;;;7.53;;
59930;SDS011;45790;51.538;6.736;2023-06-26T02:12:47;13.47;;;7.77;;
59930;SDS011;45790;51.538;6.736;2023-06-26T02:15:12;11.80;;;7.70;;
59930;SDS011;45790;51.538;6.736;2023-06-26T02:17:37;13.90;;;8.53;;
59930;SDS011;45790;51.538;6.736;2023-06-26T02:20:02;12.97;;;7.00;;
59930;SDS011;45790;51.538;6.736;2023-06-26T02:22:28;14.15;;;7.75;;
59930;SDS011;45790;51.538;6.736;2023-06-26T02:24:53;14.35;;;7.30;;
59930;SDS011;45790;51.538;6.736;2023-06-26T02:27:18;10.57;;;6.90;;
59930;SDS011;45790;51.538;6.736;2023-06-26T02:29:44;12.33;;;7.07;;
59930;SDS011;45790;51.538;6.736;2023-06-26T02:32:09;14.80;;;7.13;;
59930;SDS011;45790;51.538;6.736;2023-06-26T02:34:34;15.70;;;7.95;;
59930;SDS011;45790;51.538;6.736;2023-06-26T02:37:00;10.23;;;7.07;;
59930;SDS011;45790;51.538;6.736;2023-06-26T02:39:25;13.00;;;7.38;;
59930;SDS011;45790;51.538;6.736;2023-06-26T02:41:50;12.10;;;7.35;;
59930;SDS011;45790;51.538;6.736;2023-06-26T02:44:16;10.95;;;7.50;;
59930;SDS011;45790;51.538;6.736;2023-06-26T02:46:41;10.23;;;7.50;;
59930;SDS011;45790;51.538;6.736;2023-06-26T02:49:06;13.53;;;6.33;;
59930;SDS011;45790;51.538;6.736;2023-06-26T02:51:32;10.60;;;6.38;;
59930;SDS011;45790;51.538;6.736;2023-06-26T02:53:58;9.82;;;6.63;;
59930;SDS011;45790;51.538;6.736;2023-06-26T02:56:23;7.63;;;6.17;;
59930;SDS011;45790;51.538;6.736;2023-06-26T02:58:48;9.93;;;5.93;;
59930;SDS011;45790;51.538;6.736;2023-06-26T03:01:13;9.75;;;5.80;;
59930;SDS011;45790;51.538;6.736;2023-06-26T03:03:40;7.43;;;5.50;;
59930;SDS011;45790;51.538;6.736;2023-06-26T03:06:06;10.20;;;6.13;;
59930;SDS011;45790;51.538;6.736;2023-06-26T03:08:32;7.75;;;6.10;;
59930;SDS011;45790;51.538;6.736;2023-06-26T03:10:57;13.50;;;5.93;;
59930;SDS011;45790;51.538;6.736;2023-06-26T03:13:22;9.93;;;6.30;;
59930;SDS011;45790;51.538;6.736;2023-06-26T03:15:48;9.27;;;5.72;;
59930;SDS011;45790;51.538;6.736;2023-06-26T03:18:13;9.32;;;5.50;;
59930;SDS011;45790;51.538;6.736;2023-06-26T03:20:38;11.87;;;5.60;;
59930;SDS011;45790;51.538;6.736;2023-06-26T03:23:04;7.78;;;5.97;;
59930;SDS011;45790;51.538;6.736;2023-06-26T03:25:29;8.40;;;5.80;;
59930;SDS011;45790;51.538;6.736;2023-06-26T03:27:54;8.23;;;6.20;;
59930;SDS011;45790;51.538;6.736;2023-06-26T03:30:19;8.23;;;6.30;;
59930;SDS011;45790;51.538;6.736;2023-06-26T03:32:44;8.10;;;6.17;;
59930;SDS011;45790;51.538;6.736;2023-06-26T03:35:10;10.83;;;6.23;;
59930;SDS011;45790;51.538;6.736;2023-06-26T03:37:35;9.03;;;6.30;;
59930;SDS011;45790;51.538;6.736;2023-06-26T03:40:00;9.07;;;5.77;;
59930;SDS011;45790;51.538;6.736;2023-06-26T03:42:25;7.43;;;5.85;;
59930;SDS011;45790;51.538;6.736;2023-06-26T03:44:50;7.57;;;5.30;;
59930;SDS011;45790;51.538;6.736;2023-06-26T03:47:16;8.60;;;5.83;;
59930;SDS011;45790;51.538;6.736;2023-06-26T03:49:41;7.40;;;6.25;;
59930;SDS011;45790;51.538;6.736;2023-06-26T03:52:06;9.73;;;6.00;;
59930;SDS011;45790;51.538;6.736;2023-06-26T03:54:31;6.83;;;5.30;;
59930;SDS011;45790;51.538;6.736;2023-06-26T03:56:58;7.68;;;5.90;;
59930;SDS011;45790;51.538;6.736;2023-06-26T03:59:24;8.80;;;5.40;;
59930;SDS011;45790;51.538;6.736;2023-06-26T04:01:49;7.03;;;5.83;;
59930;SDS011;45790;51.538;6.736;2023-06-26T04:04:14;7.40;;;5.73;;
59930;SDS011;45790;51.538;6.736;2023-06-26T04:06:39;9.03;;;5.33;;
59930;SDS011;45790;51.538;6.736;2023-06-26T04:09:04;8.43;;;5.50;;
59930;SDS011;45790;51.538;6.736;2023-06-26T04:11:30;7.27;;;5.63;;
59930;SDS011;45790;51.538;6.736;2023-06-26T04:13:56;10.77;;;5.35;;
59930;SDS011;45790;51.538;6.736;2023-06-26T04:16:21;8.33;;;5.23;;
59930;SDS011;45790;51.538;6.736;2023-06-26T04:18:49;6.90;;;5.22;;
59930;SDS011;45790;51.538;6.736;2023-06-26T04:21:15;8.53;;;4.90;;
59930;SDS011;45790;51.538;6.736;2023-06-26T04:23:40;8.00;;;5.07;;
59930;SDS011;45790;51.538;6.736;2023-06-26T04:26:05;13.80;;;4.78;;
59930;SDS011;45790;51.538;6.736;2023-06-26T04:28:31;7.32;;;4.75;;
59930;SDS011;45790;51.538;6.736;2023-06-26T04:30:57;6.82;;;4.68;;
59930;SDS011;45790;51.538;6.736;2023-06-26T04:33:22;7.82;;;4.85;;
59930;SDS011;45790;51.538;6.736;2023-06-26T04:35:48;8.93;;;4.80;;
59930;SDS011;45790;51.538;6.736;2023-06-26T04:38:14;8.70;;;4.78;;
59930;SDS011;45790;51.538;6.736;2023-06-26T04:40:39;6.90;;;4.93;;
59930;SDS011;45790;51.538;6.736;2023-06-26T04:43:04;9.10;;;4.70;;
59930;SDS011;45790;51.538;6.736;2023-06-26T04:45:29;9.07;;;4.60;;
59930;SDS011;45790;51.538;6.736;2023-06-26T04:47:55;8.27;;;5.20;;
59930;SDS011;45790;51.538;6.736;2023-06-26T04:50:21;7.45;;;4.50;;
59930;SDS011;45790;51.538;6.736;2023-06-26T04:52:46;9.02;;;4.82;;
59930;SDS011;45790;51.538;6.736;2023-06-26T04:55:11;8.00;;;4.40;;
59930;SDS011;45790;51.538;6.736;2023-06-26T04:57:37;8.18;;;5.07;;
59930;SDS011;45790;51.538;6.736;2023-06-26T05:00:02;7.82;;;4.20;;
59930;SDS011;45790;51.538;6.736;2023-06-26T05:02:32;6.20;;;4.28;;
59930;SDS011;45790;51.538;6.736;2023-06-26T05:04:57;7.87;;;4.27;;
59930;SDS011;45790;51.538;6.736;2023-06-26T05:07:23;6.82;;;4.07;;
59930;SDS011;45790;51.538;6.736;2023-06-26T05:09:48;11.30;;;4.00;;
59930;SDS011;45790;51.538;6.736;2023-06-26T05:12:13;7.43;;;4.57;;
59930;SDS011;45790;51.538;6.736;2023-06-26T05:14:38;8.38;;;3.88;;
59930;SDS011;45790;51.538;6.736;2023-06-26T05:17:04;8.27;;;4.22;;
59930;SDS011;45790;51.538;6.736;2023-06-26T05:19:29;7.57;;;4.25;;
59930;SDS011;45790;51.538;6.736;2023-06-26T05:21:54;10.10;;;4.30;;
59930;SDS011;45790;51.538;6.736;2023-06-26T05:24:20;12.07;;;4.25;;
59930;SDS011;45790;51.538;6.736;2023-06-26T05:26:46;9.70;;;4.30;;
59930;SDS011;45790;51.538;6.736;2023-06-26T05:29:11;8.23;;;4.00;;
59930;SDS011;45790;51.538;6.736;2023-06-26T05:31:37;10.80;;;4.03;;
59930;SDS011;45790;51.538;6.736;2023-06-26T05:34:05;8.88;;;3.67;;
59930;SDS011;45790;51.538;6.736;2023-06-26T05:36:31;7.57;;;4.05;;
59930;SDS011;45790;51.538;6.736;2023-06-26T05:38:58;8.40;;;3.90;;
59930;SDS011;45790;51.538;6.736;2023-06-26T05:41:23;13.57;;;4.47;;
59930;SDS011;45790;51.538;6.736;2023-06-26T05:43:49;16.38;;;5.03;;
59930;SDS011;45790;51.538;6.736;2023-06-26T05:46:14;15.90;;;4.40;;
59930;SDS011;45790;51.538;6.736;2023-06-26T05:48:39;10.23;;;4.40;;
59930;SDS011;45790;51.538;6.736;2023-06-26T05:51:05;12.57;;;4.40;;
59930;SDS011;45790;51.538;6.736;2023-06-26T05:53:30;8.60;;;4.30;;
59930;SDS011;45790;51.538;6.736;2023-06-26T05:55:56;10.43;;;4.63;;
59930;SDS011;45790;51.538;6.736;2023-06-26T05:58:21;11.85;;;4.35;;
59930;SDS011;45790;51.538;6.736;2023-06-26T06:00:48;9.95;;;4.13;;
59930;SDS011;45790;51.538;6.736;2023-06-26T06:03:14;13.60;;;4.60;;
59930;SDS011;45790;51.538;6.736;2023-06-26T06:05:39;9.20;;;4.22;;
59930;SDS011;45790;51.538;6.736;2023-06-26T06:08:04;10.00;;;4.20;;
59930;SDS011;45790;51.538;6.736;2023-06-26T06:10:29;8.70;;;3.70;;
59930;SDS011;45790;51.538;6.736;2023-06-26T06:12:54;12.90;;;4.00;;
59930;SDS011;45790;51.538;6.736;2023-06-26T06:15:20;9.70;;;4.13;;
59930;SDS011;45790;51.538;6.736;2023-06-26T06:17:45;9.27;;;4.20;;
59930;SDS011;45790;51.538;6.736;2023-06-26T06:20:10;9.10;;;4.18;;
59930;SDS011;45790;51.538;6.736;2023-06-26T06:22:36;8.95;;;4.07;;
59930;SDS011;45790;51.538;6.736;2023-06-26T06:25:01;10.70;;;4.15;;
59930;SDS011;45790;51.538;6.736;2023-06-26T06:27:27;10.10;;;4.00;;
59930;SDS011;45790;51.538;6.736;2023-06-26T06:29:52;6.75;;;4.00;;
59930;SDS011;45790;51.538;6.736;2023-06-26T06:32:17;11.85;;;4.63;;
59930;SDS011;45790;51.538;6.736;2023-06-26T06:34:43;10.23;;;4.30;;
59930;SDS011;45790;51.538;6.736;2023-06-26T06:37:08;10.00;;;4.03;;
59930;SDS011;45790;51.538;6.736;2023-06-26T06:39:33;9.23;;;4.45;;
59930;SDS011;45790;51.538;6.736;2023-06-26T06:41:58;10.93;;;4.33;;
59930;SDS011;45790;51.538;6.736;2023-06-26T06:44:23;14.37;;;5.00;;
59930;SDS011;45790;51.538;6.736;2023-06-26T06:46:49;12.32;;;4.03;;
59930;SDS011;45790;51.538;6.736;2023-06-26T06:49:14;10.98;;;4.38;;
59930;SDS011;45790;51.538;6.736;2023-06-26T06:51:39;10.77;;;4.15;;
59930;SDS011;45790;51.538;6.736;2023-06-26T06:54:05;9.23;;;4.20;;
59930;SDS011;45790;51.538;6.736;2023-06-26T06:56:30;10.30;;;4.50;;
59930;SDS011;45790;51.538;6.736;2023-06-26T06:58:55;14.07;;;4.93;;
59930;SDS011;45790;51.538;6.736;2023-06-26T07:01:20;11.17;;;4.27;;
59930;SDS011;45790;51.538;6.736;2023-06-26T07:03:46;11.60;;;4.90;;
59930;SDS011;45790;51.538;6.736;2023-06-26T07:06:11;13.40;;;4.17;;
59930;SDS011;45790;51.538;6.736;2023-06-26T07:08:36;11.27;;;4.80;;
59930;SDS011;45790;51.538;6.736;2023-06-26T07:11:01;11.63;;;4.80;;
59930;SDS011;45790;51.538;6.736;2023-06-26T07:13:26;13.75;;;5.38;;
59930;SDS011;45790;51.538;6.736;2023-06-26T07:15:52;11.10;;;4.53;;
59930;SDS011;45790;51.538;6.736;2023-06-26T07:18:17;20.55;;;5.03;;
59930;SDS011;45790;51.538;6.736;2023-06-26T07:20:42;16.00;;;5.68;;
59930;SDS011;45790;51.538;6.736;2023-06-26T07:23:08;12.20;;;4.50;;
59930;SDS011;45790;51.538;6.736;2023-06-26T07:25:33;10.68;;;4.57;;
59930;SDS011;45790;51.538;6.736;2023-06-26T07:27:58;14.20;;;4.55;;
59930;SDS011;45790;51.538;6.736;2023-06-26T07:30:24;9.70;;;4.15;;
59930;SDS011;45790;51.538;6.736;2023-06-26T07:32:49;13.47;;;4.80;;
59930;SDS011;45790;51.538;6.736;2023-06-26T07:35:15;11.20;;;4.10;;
59930;SDS011;45790;51.538;6.736;2023-06-26T07:37:40;8.70;;;4.15;;
59930;SDS011;45790;51.538;6.736;2023-06-26T07:40:06;11.82;;;4.53;;
59930;SDS011;45790;51.538;6.736;2023-06-26T07:42:31;13.57;;;4.75;;
59930;SDS011;45790;51.538;6.736;2023-06-26T07:44:56;9.93;;;4.15;;
59930;SDS011;45790;51.538;6.736;2023-06-26T07:47:22;11.40;;;3.87;;
59930;SDS011;45790;51.538;6.736;2023-06-26T07:49:47;17.37;;;4.10;;
59930;SDS011;45790;51.538;6.736;2023-06-26T07:52:12;18.50;;;4.20;;
59930;SDS011;45790;51.538;6.736;2023-06-26T07:54:40;13.80;;;4.20;;
59930;SDS011;45790;51.538;6.736;2023-06-26T07:57:05;8.80;;;3.30;;
59930;SDS011;45790;51.538;6.736;2023-06-26T07:59:34;10.80;;;3.83;;
59930;SDS011;45790;51.538;6.736;2023-06-26T08:01:59;8.80;;;3.63;;
59930;SDS011;45790;51.538;6.736;2023-06-26T08:04:25;9.57;;;3.42;;
59930;SDS011;45790;51.538;6.736;2023-06-26T08:06:51;12.02;;;3.92;;
59930;SDS011;45790;51.538;6.736;2023-06-26T08:09:18;15.70;;;4.05;;
59930;SDS011;45790;51.538;6.736;2023-06-26T08:11:44;10.02;;;3.33;;
59930;SDS011;45790;51.538;6.736;2023-06-26T08:14:09;11.30;;;3.65;;
59930;SDS011;45790;51.538;6.736;2023-06-26T08:16:34;10.73;;;3.37;;
59930;SDS011;45790;51.538;6.736;2023-06-26T08:19:00;9.70;;;3.90;;
59930;SDS011;45790;51.538;6.736;2023-06-26T08:21:25;10.70;;;3.63;;
59930;SDS011;45790;51.538;6.736;2023-06-26T08:23:50;12.40;;;3.83;;
59930;SDS011;45790;51.538;6.736;2023-06-26T08:26:16;11.03;;;3.70;;
59930;SDS011;45790;51.538;6.736;2023-06-26T08:28:41;11.80;;;4.03;;
59930;SDS011;45790;51.538;6.736;2023-06-26T08:31:06;14.30;;;4.00;;
59930;SDS011;45790;51.538;6.736;2023-06-26T08:33:31;10.97;;;3.77;;
59930;SDS011;45790;51.538;6.736;2023-06-26T08:35:56;11.60;;;3.40;;
59930;SDS011;45790;51.538;6.736;2023-06-26T08:38:22;8.70;;;3.40;;
59930;SDS011;45790;51.538;6.736;2023-06-26T08:40:47;8.97;;;3.23;;
59930;SDS011;45790;51.538;6.736;2023-06-26T08:43:13;8.90;;;3.20;;
59930;SDS011;45790;51.538;6.736;2023-06-26T08:45:38;8.00;;;3.08;;
59930;SDS011;45790;51.538;6.736;2023-06-26T08:48:04;8.75;;;3.45;;
59930;SDS011;45790;51.538;6.736;2023-06-26T08:50:33;9.82;;;3.70;;
59930;SDS011;45790;51.538;6.736;2023-06-26T08:55:43;8.88;;;3.03;;
59930;SDS011;45790;51.538;6.736;2023-06-26T08:58:08;15.45;;;3.50;;
59930;SDS011;45790;51.538;6.736;2023-06-26T09:00:34;9.00;;;3.10;;
59930;SDS011;45790;51.538;6.736;2023-06-26T09:02:59;10.73;;;3.58;;
59930;SDS011;45790;51.538;6.736;2023-06-26T09:05:26;13.05;;;3.50;;
59930;SDS011;45790;51.538;6.736;2023-06-26T09:07:52;7.78;;;3.17;;
59930;SDS011;45790;51.538;6.736;2023-06-26T09:10:20;12.32;;;3.30;;
59930;SDS011;45790;51.538;6.736;2023-06-26T09:12:46;10.95;;;2.83;;
59930;SDS011;45790;51.538;6.736;2023-06-26T09:15:13;11.75;;;3.50;;
59930;SDS011;45790;51.538;6.736;2023-06-26T09:17:39;9.02;;;3.08;;
59930;SDS011;45790;51.538;6.736;2023-06-26T09:20:08;9.02;;;3.30;;
59930;SDS011;45790;51.538;6.736;2023-06-26T09:22:34;8.05;;;2.80;;
59930;SDS011;45790;51.538;6.736;2023-06-26T09:25:00;8.77;;;2.85;;
59930;SDS011;45790;51.538;6.736;2023-06-26T09:27:26;9.43;;;3.08;;
59930;SDS011;45790;51.538;6.736;2023-06-26T09:29:51;8.05;;;2.92;;
59930;SDS011;45790;51.538;6.736;2023-06-26T09:32:16;60.58;;;5.30;;
59930;SDS011;45790;51.538;6.736;2023-06-26T09:34:42;7.27;;;2.90;;
59930;SDS011;45790;51.538;6.736;2023-06-26T09:37:11;8.98;;;3.00;;
59930;SDS011;45790;51.538;6.736;2023-06-26T09:39:36;6.03;;;2.60;;
59930;SDS011;45790;51.538;6.736;2023-06-26T09:42:02;7.13;;;2.45;;
59930;SDS011;45790;51.538;6.736;2023-06-26T09:44:28;11.45;;;2.80;;
59930;SDS011;45790;51.538;6.736;2023-06-26T09:46:55;7.55;;;2.65;;
59930;SDS011;45790;51.538;6.736;2023-06-26T09:49:21;6.63;;;2.55;;
59930;SDS011;45790;51.538;6.736;2023-06-26T09:51:46;8.52;;;2.47;;
59930;SDS011;45790;51.538;6.736;2023-06-26T09:54:11;9.13;;;2.83;;
59930;SDS011;45790;51.538;6.736;2023-06-26T09:56:36;6.35;;;2.72;;
59930;SDS011;45790;51.538;6.736;2023-06-26T09:59:03;12.87;;;2.80;;
59930;SDS011;45790;51.538;6.736;2023-06-26T10:01:29;10.73;;;2.75;;
59930;SDS011;45790;51.538;6.736;2023-06-26T10:03:54;9.82;;;2.58;;
59930;SDS011;45790;51.538;6.736;2023-06-26T10:08:50;5.65;;;2.22;;
59930;SDS011;45790;51.538;6.736;2023-06-26T10:11:16;5.65;;;2.10;;
59930;SDS011;45790;51.538;6.736;2023-06-26T10:13:44;7.47;;;2.58;;
59930;SDS011;45790;51.538;6.736;2023-06-26T10:16:11;7.20;;;2.38;;
59930;SDS011;45790;51.538;6.736;2023-06-26T10:18:37;8.88;;;2.20;;
59930;SDS011;45790;51.538;6.736;2023-06-26T10:21:03;7.90;;;2.67;;
59930;SDS011;45790;51.538;6.736;2023-06-26T10:23:30;8.18;;;2.88;;
59930;SDS011;45790;51.538;6.736;2023-06-26T10:25:55;9.00;;;3.05;;
59930;SDS011;45790;51.538;6.736;2023-06-26T10:28:23;5.75;;;2.50;;
59930;SDS011;45790;51.538;6.736;2023-06-26T10:30:49;8.32;;;2.40;;
59930;SDS011;45790;51.538;6.736;2023-06-26T10:33:15;6.80;;;2.60;;
59930;SDS011;45790;51.538;6.736;2023-06-26T10:35:42;5.80;;;2.20;;
59930;SDS011;45790;51.538;6.736;2023-06-26T10:38:08;6.82;;;2.17;;
59930;SDS011;45790;51.538;6.736;2023-06-26T10:40:41;7.40;;;2.38;;
59930;SDS011;45790;51.538;6.736;2023-06-26T10:43:07;7.03;;;1.73;;
59930;SDS011;45790;51.538;6.736;2023-06-26T10:45:33;6.60;;;1.75;;
59930;SDS011;45790;51.538;6.736;2023-06-26T10:47:58;8.13;;;2.08;;
59930;SDS011;45790;51.538;6.736;2023-06-26T10:50:24;7.50;;;1.70;;
59930;SDS011;45790;51.538;6.736;2023-06-26T10:53:35;8.73;;;1.33;;
59930;SDS011;45790;51.538;6.736;2023-06-26T10:55:36;5.75;;;1.70;;
59930;SDS011;45790;51.538;6.736;2023-06-26T10:58:01;6.00;;;1.23;;
59930;SDS011;45790;51.538;6.736;2023-06-26T11:00:30;4.88;;;1.30;;
59930;SDS011;45790;51.538;6.736;2023-06-26T11:02:55;6.47;;;1.52;;
59930;SDS011;45790;51.538;6.736;2023-06-26T11:05:24;4.63;;;1.40;;
59930;SDS011;45790;51.538;6.736;2023-06-26T11:08:03;5.45;;;1.35;;
59930;SDS011;45790;51.538;6.736;2023-06-26T11:10:29;4.40;;;1.38;;
59930;SDS011;45790;51.538;6.736;2023-06-26T11:12:54;5.97;;;1.40;;
59930;SDS011;45790;51.538;6.736;2023-06-26T11:15:22;4.82;;;1.40;;
59930;SDS011;45790;51.538;6.736;2023-06-26T11:17:49;4.65;;;1.20;;
59930;SDS011;45790;51.538;6.736;2023-06-26T11:20:15;3.97;;;1.23;;
59930;SDS011;45790;51.538;6.736;2023-06-26T11:22:43;10.40;;;2.80;;
59930;SDS011;45790;51.538;6.736;2023-06-26T11:25:09;4.40;;;1.27;;
59930;SDS011;45790;51.538;6.736;2023-06-26T11:30:03;4.47;;;1.05;;
59930;SDS011;45790;51.538;6.736;2023-06-26T11:32:28;5.63;;;1.17;;
59930;SDS011;45790;51.538;6.736;2023-06-26T11:34:54;4.47;;;1.13;;
59930;SDS011;45790;51.538;6.736;2023-06-26T11:37:20;5.35;;;1.20;;
59930;SDS011;45790;51.538;6.736;2023-06-26T11:39:45;2.38;;;1.13;;
59930;SDS011;45790;51.538;6.736;2023-06-26T11:42:11;7.93;;;1.10;;
59930;SDS011;45790;51.538;6.736;2023-06-26T11:44:42;6.20;;;1.17;;
59930;SDS011;45790;51.538;6.736;2023-06-26T11:47:11;8.57;;;1.30;;
59930;SDS011;45790;51.538;6.736;2023-06-26T11:49:37;6.53;;;1.00;;
59930;SDS011;45790;51.538;6.736;2023-06-26T11:52:02;4.00;;;1.20;;
59930;SDS011;45790;51.538;6.736;2023-06-26T11:54:28;4.28;;;0.93;;
59930;SDS011;45790;51.538;6.736;2023-06-26T11:56:57;5.60;;;1.10;;
59930;SDS011;45790;51.538;6.736;2023-06-26T11:59:22;2.45;;;0.80;;
59930;SDS011;45790;51.538;6.736;2023-06-26T12:01:48;3.13;;;1.00;;
59930;SDS011;45790;51.538;6.736;2023-06-26T12:04:14;1.75;;;0.90;;
59930;SDS011;45790;51.538;6.736;2023-06-26T12:06:42;2.58;;;0.80;;
59930;SDS011;45790;51.538;6.736;2023-06-26T12:09:08;3.55;;;0.90;;
59930;SDS011;45790;51.538;6.736;2023-06-26T12:11:35;2.47;;;0.77;;
59930;SDS011;45790;51.538;6.736;2023-06-26T12:14:01;2.85;;;0.80;;
59930;SDS011;45790;51.538;6.736;2023-06-26T12:16:28;3.22;;;0.85;;
59930;SDS011;45790;51.538;6.736;2023-06-26T12:19:00;6.30;;;1.13;;
59930;SDS011;45790;51.538;6.736;2023-06-26T12:24:00;5.68;;;1.02;;
59930;SDS011;45790;51.538;6.736;2023-06-26T12:26:26;3.10;;;0.90;;
59930;SDS011;45790;51.538;6.736;2023-06-26T12:28:51;2.38;;;0.85;;
59930;SDS011;45790;51.538;6.736;2023-06-26T12:31:17;6.80;;;0.93;;
59930;SDS011;45790;51.538;6.736;2023-06-26T12:33:45;6.15;;;1.00;;
59930;SDS011;45790;51.538;6.736;2023-06-26T12:36:13;6.43;;;1.00;;
59930;SDS011;45790;51.538;6.736;2023-06-26T12:38:38;3.22;;;1.00;;
59930;SDS011;45790;51.538;6.736;2023-06-26T12:41:04;5.30;;;0.82;;
59930;SDS011;45790;51.538;6.736;2023-06-26T12:43:29;1.77;;;0.70;;
59930;SDS011;45790;51.538;6.736;2023-06-26T12:45:55;5.27;;;1.20;;
59930;SDS011;45790;51.538;6.736;2023-06-26T12:48:21;5.93;;;1.00;;
59930;SDS011;45790;51.538;6.736;2023-06-26T12:50:46;6.30;;;1.00;;
59930;SDS011;45790;51.538;6.736;2023-06-26T12:53:11;4.25;;;0.85;;
59930;SDS011;45790;51.538;6.736;2023-06-26T12:55:37;3.45;;;1.00;;
59930;SDS011;45790;51.538;6.736;2023-06-26T12:58:02;4.85;;;1.20;;
59930;SDS011;45790;51.538;6.736;2023-06-26T13:00:27;4.67;;;1.00;;
59930;SDS011;45790;51.538;6.736;2023-06-26T13:02:52;8.27;;;1.00;;
59930;SDS011;45790;51.538;6.736;2023-06-26T13:05:17;3.97;;;1.20;;
59930;SDS011;45790;51.538;6.736;2023-06-26T13:07:43;7.43;;;1.23;;
59930;SDS011;45790;51.538;6.736;2023-06-26T13:10:08;4.70;;;1.10;;
59930;SDS011;45790;51.538;6.736;2023-06-26T13:12:33;3.20;;;1.00;;
59930;SDS011;45790;51.538;6.736;2023-06-26T13:14:59;6.72;;;1.23;;
59930;SDS011;45790;51.538;6.736;2023-06-26T13:17:25;3.95;;;0.80;;
59930;SDS011;45790;51.538;6.736;2023-06-26T13:19:50;5.17;;;1.10;;
59930;SDS011;45790;51.538;6.736;2023-06-26T13:22:15;6.23;;;1.00;;
59930;SDS011;45790;51.538;6.736;2023-06-26T13:24:41;11.05;;;1.23;;
59930;SDS011;45790;51.538;6.736;2023-06-26T13:27:07;6.15;;;0.90;;
59930;SDS011;45790;51.538;6.736;2023-06-26T13:29:32;4.80;;;1.05;;
59930;SDS011;45790;51.538;6.736;2023-06-26T13:31:57;5.85;;;1.00;;
59930;SDS011;45790;51.538;6.736;2023-06-26T13:34:23;4.60;;;1.20;;
59930;SDS011;45790;51.538;6.736;2023-06-26T13:36:48;5.80;;;1.55;;
59930;SDS011;45790;51.538;6.736;2023-06-26T13:39:14;41.47;;;6.80;;
59930;SDS011;45790;51.538;6.736;2023-06-26T13:41:39;35.57;;;4.50;;
59930;SDS011;45790;51.538;6.736;2023-06-26T13:44:04;9.63;;;1.60;;
59930;SDS011;45790;51.538;6.736;2023-06-26T13:46:29;23.43;;;6.27;;
59930;SDS011;45790;51.538;6.736;2023-06-26T13:48:54;15.20;;;1.73;;
59930;SDS011;45790;51.538;6.736;2023-06-26T13:51:19;181.43;;;10.83;;
59930;SDS011;45790;51.538;6.736;2023-06-26T13:53:45;7.30;;;1.10;;
59930;SDS011;45790;51.538;6.736;2023-06-26T13:56:10;13.25;;;0.88;;
59930;SDS011;45790;51.538;6.736;2023-06-26T13:58:35;13.27;;;1.43;;
59930;SDS011;45790;51.538;6.736;2023-06-26T14:01:01;4.78;;;1.00;;
59930;SDS011;45790;51.538;6.736;2023-06-26T14:03:26;5.72;;;1.30;;
59930;SDS011;45790;51.538;6.736;2023-06-26T14:05:52;14.20;;;1.08;;
59930;SDS011;45790;51.538;6.736;2023-06-26T14:08:17;7.43;;;0.90;;
59930;SDS011;45790;51.538;6.736;2023-06-26T14:10:43;9.37;;;1.60;;
59930;SDS011;45790;51.538;6.736;2023-06-26T14:13:08;3.70;;;1.40;;
59930;SDS011;45790;51.538;6.736;2023-06-26T14:15:34;7.90;;;1.10;;
59930;SDS011;45790;51.538;6.736;2023-06-26T14:18:00;3.78;;;1.00;;
59930;SDS011;45790;51.538;6.736;2023-06-26T14:20:27;5.47;;;1.10;;
59930;SDS011;45790;51.538;6.736;2023-06-26T14:22:53;4.03;;;0.90;;
59930;SDS011;45790;51.538;6.736;2023-06-26T14:25:18;4.97;;;1.20;;
59930;SDS011;45790;51.538;6.736;2023-06-26T14:27:44;4.07;;;0.80;;
59930;SDS011;45790;51.538;6.736;2023-06-26T14:30:09;2.97;;;1.07;;
59930;SDS011;45790;51.538;6.736;2023-06-26T14:32:35;9.68;;;1.02;;
59930;SDS011;45790;51.538;6.736;2023-06-26T14:35:00;4.57;;;1.27;;
59930;SDS011;45790;51.538;6.736;2023-06-26T14:37:26;3.40;;;1.00;;
59930;SDS011;45790;51.538;6.736;2023-06-26T14:39:52;4.95;;;1.10;;
59930;SDS011;45790;51.538;6.736;2023-06-26T14:42:17;5.15;;;1.10;;
59930;SDS011;45790;51.538;6.736;2023-06-26T14:44:42;4.93;;;1.30;;
59930;SDS011;45790;51.538;6.736;2023-06-26T14:47:07;4.57;;;1.00;;
59930;SDS011;45790;51.538;6.736;2023-06-26T14:49:33;8.77;;;1.50;;
59930;SDS011;45790;51.538;6.736;2023-06-26T14:51:58;7.43;;;1.43;;